sensor_id;sensor_type;location;lat;lon;timestamp;pressure;altitude;pressure_sealevel;temperature;humidity
48053;BME280;33824;51.600;5.718;2022-10-03T00:00:23;102374.91;;;10.49;93.26
48053;BME280;33824;51.600;5.718;2022-10-03T00:03:21;102389.31;;;10.37;94.05
48053;BME280;33824;51.600;5.718;2022-10-03T00:08:55;102389.59;;;10.43;94.31
48053;BME280;33824;51.600;5.718;2022-10-03T00:11:50;102393.09;;;10.34;94.45
48053;BME280;33824;51.600;5.718;2022-10-03T00:14:42;102397.72;;;10.32;94.96
48053;BME280;33824;51.600;5.718;2022-10-03T00:17:18;102396.19;;;10.39;94.22
48053;BME280;33824;51.600;5.718;2022-10-03T00:20:07;102392.38;;;10.32;94.42
48053;BME280;33824;51.600;5.718;2022-10-03T00:22:57;102398.94;;;10.28;94.44
48053;BME280;33824;51.600;5.718;2022-10-03T00:25:50;102402.59;;;10.27;94.09
48053;BME280;33824;51.600;5.718;2022-10-03T00:28:38;102405.72;;;10.32;93.60
48053;BME280;33824;51.600;5.718;2022-10-03T00:31:13;102402.34;;;10.30;93.44
48053;BME280;33824;51.600;5.718;2022-10-03T00:34:02;102407.09;;;10.27;93.44
48053;BME280;33824;51.600;5.718;2022-10-03T00:37:02;102412.69;;;10.24;93.89
48053;BME280;33824;51.600;5.718;2022-10-03T00:39:48;102405.22;;;10.18;94.77
48053;BME280;33824;51.600;5.718;2022-10-03T00:45:19;102416.75;;;10.28;94.81
48053;BME280;33824;51.600;5.718;2022-10-03T00:51:00;102417.88;;;10.04;95.11
48053;BME280;33824;51.600;5.718;2022-10-03T00:53:46;102427.06;;;10.11;94.90
48053;BME280;33824;51.600;5.718;2022-10-03T00:59:22;102432.25;;;10.13;94.37
48053;BME280;33824;51.600;5.718;2022-10-03T01:01:51;102426.28;;;10.21;94.14
48053;BME280;33824;51.600;5.718;2022-10-03T01:12:51;102428.69;;;10.03;94.78
48053;BME280;33824;51.600;5.718;2022-10-03T01:20:50;102439.44;;;9.92;95.65
48053;BME280;33824;51.600;5.718;2022-10-03T01:31:43;102455.81;;;9.87;96.10
48053;BME280;33824;51.600;5.718;2022-10-03T01:37:08;102456.91;;;9.85;96.10
48053;BME280;33824;51.600;5.718;2022-10-03T01:42:57;102462.91;;;9.77;95.74
48053;BME280;33824;51.600;5.718;2022-10-03T01:48:33;102452.66;;;9.82;96.17
48053;BME280;33824;51.600;5.718;2022-10-03T01:51:15;102449.88;;;9.84;96.27
48053;BME280;33824;51.600;5.718;2022-10-03T01:53:51;102452.09;;;9.79;96.09
48053;BME280;33824;51.600;5.718;2022-10-03T01:56:32;102448.72;;;9.77;96.14
48053;BME280;33824;51.600;5.718;2022-10-03T01:59:14;102455.97;;;9.75;96.23
48053;BME280;33824;51.600;5.718;2022-10-03T02:01:58;102456.00;;;9.54;97.76
48053;BME280;33824;51.600;5.718;2022-10-03T02:04:30;102460.72;;;9.71;97.32
48053;BME280;33824;51.600;5.718;2022-10-03T02:07:25;102465.84;;;9.63;97.11
48053;BME280;33824;51.600;5.718;2022-10-03T02:13:00;102454.41;;;9.51;97.62
48053;BME280;33824;51.600;5.718;2022-10-03T02:21:25;102466.63;;;9.54;96.54
48053;BME280;33824;51.600;5.718;2022-10-03T02:30:08;102467.00;;;9.49;97.89
48053;BME280;33824;51.600;5.718;2022-10-03T02:35:46;102464.81;;;9.54;98.09
48053;BME280;33824;51.600;5.718;2022-10-03T02:52:07;102464.13;;;9.41;98.19
48053;BME280;33824;51.600;5.718;2022-10-03T02:55:13;102468.88;;;9.38;97.95
48053;BME280;33824;51.600;5.718;2022-10-03T02:58:21;102471.44;;;9.39;97.38
48053;BME280;33824;51.600;5.718;2022-10-03T03:01:22;102476.28;;;9.34;97.42
48053;BME280;33824;51.600;5.718;2022-10-03T03:04:10;102465.28;;;9.28;97.72
48053;BME280;33824;51.600;5.718;2022-10-03T03:07:14;102467.59;;;9.21;97.28
48053;BME280;33824;51.600;5.718;2022-10-03T03:20:40;102469.78;;;9.27;96.63
48053;BME280;33824;51.600;5.718;2022-10-03T03:26:13;102471.00;;;9.23;97.11
48053;BME280;33824;51.600;5.718;2022-10-03T03:29:04;102474.94;;;9.29;96.85
48053;BME280;33824;51.600;5.718;2022-10-03T03:34:19;102492.63;;;9.30;97.62
48053;BME280;33824;51.600;5.718;2022-10-03T03:37:10;102492.75;;;9.17;97.28
48053;BME280;33824;51.600;5.718;2022-10-03T03:47:54;102479.31;;;9.30;96.61
48053;BME280;33824;51.600;5.718;2022-10-03T03:50:34;102474.34;;;9.25;96.39
48053;BME280;33824;51.600;5.718;2022-10-03T03:55:48;102485.41;;;9.21;97.02
48053;BME280;33824;51.600;5.718;2022-10-03T03:58:43;102488.06;;;9.21;97.12
48053;BME280;33824;51.600;5.718;2022-10-03T04:04:11;102475.19;;;9.26;96.48
48053;BME280;33824;51.600;5.718;2022-10-03T04:06:55;102481.97;;;9.30;96.40
48053;BME280;33824;51.600;5.718;2022-10-03T04:09:30;102479.19;;;9.31;95.88
48053;BME280;33824;51.600;5.718;2022-10-03T04:17:51;102481.59;;;9.34;95.51
48053;BME280;33824;51.600;5.718;2022-10-03T04:23:57;102492.75;;;9.17;96.16
48053;BME280;33824;51.600;5.718;2022-10-03T04:27:02;102490.09;;;9.17;95.80
48053;BME280;33824;51.600;5.718;2022-10-03T04:29:42;102490.94;;;9.18;96.38
48053;BME280;33824;51.600;5.718;2022-10-03T04:32:32;102498.09;;;9.17;96.58
48053;BME280;33824;51.600;5.718;2022-10-03T04:43:14;102502.22;;;9.10;96.96
48053;BME280;33824;51.600;5.718;2022-10-03T04:48:58;102506.84;;;9.08;98.05
48053;BME280;33824;51.600;5.718;2022-10-03T04:51:45;102506.34;;;9.03;98.13
48053;BME280;33824;51.600;5.718;2022-10-03T05:00:49;102504.06;;;8.87;98.39
48053;BME280;33824;51.600;5.718;2022-10-03T05:03:39;102498.38;;;8.92;98.25
48053;BME280;33824;51.600;5.718;2022-10-03T05:12:05;102502.00;;;8.91;97.49
48053;BME280;33824;51.600;5.718;2022-10-03T05:14:49;102507.91;;;8.94;96.73
48053;BME280;33824;51.600;5.718;2022-10-03T05:17:39;102506.97;;;8.95;96.95
48053;BME280;33824;51.600;5.718;2022-10-03T05:22:55;102518.81;;;8.91;97.01
48053;BME280;33824;51.600;5.718;2022-10-03T05:25:59;102515.81;;;8.85;96.38
48053;BME280;33824;51.600;5.718;2022-10-03T05:39:59;102524.28;;;8.90;95.90
48053;BME280;33824;51.600;5.718;2022-10-03T05:42:36;102528.25;;;8.95;95.66
48053;BME280;33824;51.600;5.718;2022-10-03T05:45:27;102530.56;;;8.89;94.97
48053;BME280;33824;51.600;5.718;2022-10-03T05:59:38;102545.66;;;8.88;95.18
48053;BME280;33824;51.600;5.718;2022-10-03T06:08:10;102552.56;;;8.91;95.98
48053;BME280;33824;51.600;5.718;2022-10-03T06:13:45;102554.72;;;9.19;95.90
48053;BME280;33824;51.600;5.718;2022-10-03T06:16:37;102553.16;;;9.17;95.86
48053;BME280;33824;51.600;5.718;2022-10-03T06:19:23;102555.53;;;9.31;95.98
48053;BME280;33824;51.600;5.718;2022-10-03T06:25:02;102554.78;;;9.40;96.49
48053;BME280;33824;51.600;5.718;2022-10-03T06:30:56;102557.19;;;9.54;96.16
48053;BME280;33824;51.600;5.718;2022-10-03T06:33:34;102551.75;;;9.76;96.63
48053;BME280;33824;51.600;5.718;2022-10-03T06:50:48;102574.66;;;10.31;95.74
48053;BME280;33824;51.600;5.718;2022-10-03T06:58:54;102566.94;;;10.79;96.13
48053;BME280;33824;51.600;5.718;2022-10-03T07:18:28;102574.81;;;11.89;95.05
48053;BME280;33824;51.600;5.718;2022-10-03T07:29:29;102579.72;;;12.32;94.44
48053;BME280;33824;51.600;5.718;2022-10-03T07:35:05;102584.44;;;12.58;93.85
48053;BME280;33824;51.600;5.718;2022-10-03T07:46:16;102577.06;;;13.06;92.83
48053;BME280;33824;51.600;5.718;2022-10-03T07:54:28;102584.03;;;13.71;92.08
48053;BME280;33824;51.600;5.718;2022-10-03T08:00:25;102599.34;;;13.97;91.77
48053;BME280;33824;51.600;5.718;2022-10-03T08:03:19;102607.47;;;14.22;91.23
48053;BME280;33824;51.600;5.718;2022-10-03T08:06:29;102607.31;;;14.24;89.65
48053;BME280;33824;51.600;5.718;2022-10-03T08:09:27;102606.94;;;14.36;89.09
48053;BME280;33824;51.600;5.718;2022-10-03T08:12:32;102610.91;;;14.50;88.58
48053;BME280;33824;51.600;5.718;2022-10-03T08:15:21;102615.22;;;14.69;89.15
48053;BME280;33824;51.600;5.718;2022-10-03T08:18:09;102616.69;;;14.89;88.29
48053;BME280;33824;51.600;5.718;2022-10-03T08:21:00;102615.09;;;15.04;87.60
48053;BME280;33824;51.600;5.718;2022-10-03T08:29:35;102614.69;;;15.59;87.03
48053;BME280;33824;51.600;5.718;2022-10-03T08:56:00;102611.22;;;16.71;82.53
48053;BME280;33824;51.600;5.718;2022-10-03T09:03:55;102608.53;;;17.18;81.27
48053;BME280;33824;51.600;5.718;2022-10-03T09:14:46;102608.28;;;17.75;78.87
48053;BME280;33824;51.600;5.718;2022-10-03T09:17:46;102599.13;;;17.84;76.61
48053;BME280;33824;51.600;5.718;2022-10-03T09:23:07;102599.78;;;18.09;76.19
48053;BME280;33824;51.600;5.718;2022-10-03T09:25:52;102602.34;;;18.25;75.49
48053;BME280;33824;51.600;5.718;2022-10-03T09:28:48;102603.41;;;18.16;73.72
48053;BME280;33824;51.600;5.718;2022-10-03T09:31:28;102591.47;;;18.33;74.90
48053;BME280;33824;51.600;5.718;2022-10-03T09:34:27;102592.63;;;18.53;74.34
48053;BME280;33824;51.600;5.718;2022-10-03T09:40:14;102590.53;;;18.63;71.93
48053;BME280;33824;51.600;5.718;2022-10-03T09:46:30;102586.34;;;18.90;72.21
48053;BME280;33824;51.600;5.718;2022-10-03T10:01:11;102575.69;;;19.18;65.60
48053;BME280;33824;51.600;5.718;2022-10-03T10:20:45;102559.91;;;19.51;67.69
48053;BME280;33824;51.600;5.718;2022-10-03T10:32:02;102555.41;;;20.00;66.77
48053;BME280;33824;51.600;5.718;2022-10-03T10:35:20;102557.31;;;20.06;65.80
48053;BME280;33824;51.600;5.718;2022-10-03T10:38:03;102552.75;;;20.07;66.68
48053;BME280;33824;51.600;5.718;2022-10-03T10:43:47;102548.41;;;20.34;63.14
48053;BME280;33824;51.600;5.718;2022-10-03T10:46:34;102546.63;;;20.47;64.52
48053;BME280;33824;51.600;5.718;2022-10-03T10:49:33;102548.16;;;20.56;65.39
48053;BME280;33824;51.600;5.718;2022-10-03T11:00:38;102540.09;;;20.70;64.38
48053;BME280;33824;51.600;5.718;2022-10-03T11:09:33;102538.13;;;20.50;61.37
48053;BME280;33824;51.600;5.718;2022-10-03T11:12:21;102540.75;;;20.44;61.26
48053;BME280;33824;51.600;5.718;2022-10-03T11:20:46;102530.31;;;20.75;60.08
48053;BME280;33824;51.600;5.718;2022-10-03T11:23:34;102534.06;;;20.74;60.37
48053;BME280;33824;51.600;5.718;2022-10-03T11:26:23;102544.88;;;20.68;61.72
48053;BME280;33824;51.600;5.718;2022-10-03T11:29:46;102544.44;;;20.64;57.15
48053;BME280;33824;51.600;5.718;2022-10-03T11:40:50;102527.31;;;20.98;59.03
48053;BME280;33824;51.600;5.718;2022-10-03T11:46:17;102532.72;;;20.98;57.10
48053;BME280;33824;51.600;5.718;2022-10-03T11:48:55;102535.19;;;20.93;56.08
48053;BME280;33824;51.600;5.718;2022-10-03T11:53:57;102540.31;;;20.40;60.94
48053;BME280;33824;51.600;5.718;2022-10-03T11:57:07;102533.50;;;20.85;59.49
48053;BME280;33824;51.600;5.718;2022-10-03T12:02:08;102532.28;;;20.94;58.86
48053;BME280;33824;51.600;5.718;2022-10-03T12:04:57;102537.88;;;20.86;58.46
48053;BME280;33824;51.600;5.718;2022-10-03T12:10:35;102536.00;;;20.87;58.66
48053;BME280;33824;51.600;5.718;2022-10-03T12:13:10;102534.56;;;20.91;58.16
48053;BME280;33824;51.600;5.718;2022-10-03T12:15:48;102527.69;;;20.88;58.88
48053;BME280;33824;51.600;5.718;2022-10-03T12:29:01;102527.59;;;20.69;58.92
48053;BME280;33824;51.600;5.718;2022-10-03T12:31:34;102518.47;;;20.83;58.60
48053;BME280;33824;51.600;5.718;2022-10-03T12:34:34;102515.34;;;20.79;58.79
48053;BME280;33824;51.600;5.718;2022-10-03T12:45:11;102512.44;;;20.87;58.37
48053;BME280;33824;51.600;5.718;2022-10-03T12:53:33;102507.84;;;21.35;56.96
48053;BME280;33824;51.600;5.718;2022-10-03T12:58:59;102499.56;;;21.63;56.03
48053;BME280;33824;51.600;5.718;2022-10-03T13:04:31;102498.31;;;21.52;56.69
48053;BME280;33824;51.600;5.718;2022-10-03T13:12:47;102493.06;;;21.38;56.12
48053;BME280;33824;51.600;5.718;2022-10-03T13:25:43;102483.44;;;21.35;55.00
48053;BME280;33824;51.600;5.718;2022-10-03T13:28:15;102476.13;;;21.29;54.70
48053;BME280;33824;51.600;5.718;2022-10-03T13:30:47;102479.44;;;21.25;55.30
48053;BME280;33824;51.600;5.718;2022-10-03T13:33:27;102480.69;;;21.22;55.80
48053;BME280;33824;51.600;5.718;2022-10-03T13:36:16;102474.25;;;21.36;55.82
48053;BME280;33824;51.600;5.718;2022-10-03T13:44:12;102471.16;;;21.85;55.93
48053;BME280;33824;51.600;5.718;2022-10-03T13:46:49;102463.25;;;22.04;55.21
48053;BME280;33824;51.600;5.718;2022-10-03T13:49:26;102463.25;;;22.10;54.79
48053;BME280;33824;51.600;5.718;2022-10-03T13:52:05;102465.56;;;22.07;53.83
48053;BME280;33824;51.600;5.718;2022-10-03T13:57:34;102459.25;;;22.19;54.38
48053;BME280;33824;51.600;5.718;2022-10-03T14:00:22;102458.63;;;22.11;54.28
48053;BME280;33824;51.600;5.718;2022-10-03T14:02:58;102452.16;;;22.12;52.44
48053;BME280;33824;51.600;5.718;2022-10-03T14:11:06;102450.28;;;21.86;54.42
48053;BME280;33824;51.600;5.718;2022-10-03T14:16:36;102450.91;;;21.55;52.85
48053;BME280;33824;51.600;5.718;2022-10-03T14:19:31;102452.34;;;21.44;53.41
48053;BME280;33824;51.600;5.718;2022-10-03T14:22:10;102440.44;;;21.26;53.67
48053;BME280;33824;51.600;5.718;2022-10-03T14:24:53;102449.41;;;21.26;54.04
48053;BME280;33824;51.600;5.718;2022-10-03T14:30:21;102452.09;;;21.20;54.97
48053;BME280;33824;51.600;5.718;2022-10-03T14:33:12;102451.47;;;21.24;55.23
48053;BME280;33824;51.600;5.718;2022-10-03T14:36:12;102442.97;;;21.34;55.42
48053;BME280;33824;51.600;5.718;2022-10-03T14:41:42;102433.97;;;21.40;56.26
48053;BME280;33824;51.600;5.718;2022-10-03T14:46:56;102426.63;;;21.21;54.80
48053;BME280;33824;51.600;5.718;2022-10-03T14:49:26;102420.38;;;21.27;55.65
48053;BME280;33824;51.600;5.718;2022-10-03T14:52:07;102413.69;;;21.16;55.34
48053;BME280;33824;51.600;5.718;2022-10-03T14:54:36;102411.63;;;21.18;55.18
48053;BME280;33824;51.600;5.718;2022-10-03T14:57:22;102419.03;;;20.96;55.05
48053;BME280;33824;51.600;5.718;2022-10-03T14:59:53;102419.66;;;20.92;55.99
48053;BME280;33824;51.600;5.718;2022-10-03T15:02:36;102417.56;;;20.81;56.12
48053;BME280;33824;51.600;5.718;2022-10-03T15:05:19;102420.88;;;20.76;56.39
48053;BME280;33824;51.600;5.718;2022-10-03T15:07:47;102426.94;;;20.85;56.03
48053;BME280;33824;51.600;5.718;2022-10-03T15:10:18;102419.63;;;20.79;56.25
48053;BME280;33824;51.600;5.718;2022-10-03T15:12:48;102418.94;;;20.70;56.06
48053;BME280;33824;51.600;5.718;2022-10-03T15:15:25;102410.19;;;20.68;55.80
48053;BME280;33824;51.600;5.718;2022-10-03T15:17:57;102411.63;;;20.64;55.91
48053;BME280;33824;51.600;5.718;2022-10-03T15:20:34;102408.31;;;20.69;56.73
48053;BME280;33824;51.600;5.718;2022-10-03T15:23:05;102404.38;;;20.71;57.14
48053;BME280;33824;51.600;5.718;2022-10-03T15:25:37;102403.53;;;20.71;57.11
48053;BME280;33824;51.600;5.718;2022-10-03T15:28:18;102402.72;;;20.77;57.36
48053;BME280;33824;51.600;5.718;2022-10-03T15:30:45;102402.50;;;20.78;57.65
48053;BME280;33824;51.600;5.718;2022-10-03T15:33:30;102402.91;;;20.69;56.96
48053;BME280;33824;51.600;5.718;2022-10-03T15:36:15;102398.94;;;20.71;56.61
48053;BME280;33824;51.600;5.718;2022-10-03T15:38:47;102393.34;;;20.79;57.00
48053;BME280;33824;51.600;5.718;2022-10-03T15:43:56;102380.63;;;20.80;57.03
48053;BME280;33824;51.600;5.718;2022-10-03T15:46:33;102381.00;;;20.70;56.93
48053;BME280;33824;51.600;5.718;2022-10-03T15:49:05;102383.94;;;20.69;56.88
48053;BME280;33824;51.600;5.718;2022-10-03T15:51:34;102375.75;;;20.62;57.34
48053;BME280;33824;51.600;5.718;2022-10-03T15:54:06;102378.69;;;20.54;57.65
48053;BME280;33824;51.600;5.718;2022-10-03T15:56:41;102377.97;;;20.39;58.01
48053;BME280;33824;51.600;5.718;2022-10-03T15:59:21;102370.59;;;20.26;57.95
48053;BME280;33824;51.600;5.718;2022-10-03T16:01:49;102366.66;;;20.29;58.09
48053;BME280;33824;51.600;5.718;2022-10-03T16:04:20;102358.66;;;20.21;58.47
48053;BME280;33824;51.600;5.718;2022-10-03T16:09:49;102363.75;;;19.96;59.02
48053;BME280;33824;51.600;5.718;2022-10-03T16:15:25;102358.97;;;19.98;59.24
48053;BME280;33824;51.600;5.718;2022-10-03T16:17:57;102355.19;;;19.92;59.84
48053;BME280;33824;51.600;5.718;2022-10-03T16:20:39;102353.22;;;19.80;59.88
48053;BME280;33824;51.600;5.718;2022-10-03T16:23:16;102356.75;;;19.74;60.23
48053;BME280;33824;51.600;5.718;2022-10-03T16:25:47;102359.63;;;19.72;59.56
48053;BME280;33824;51.600;5.718;2022-10-03T16:28:19;102350.81;;;19.63;59.88
48053;BME280;33824;51.600;5.718;2022-10-03T16:30:55;102349.72;;;19.51;60.07
48053;BME280;33824;51.600;5.718;2022-10-03T16:33:32;102345.91;;;19.46;60.54
48053;BME280;33824;51.600;5.718;2022-10-03T16:36:07;102355.16;;;19.37;60.53
48053;BME280;33824;51.600;5.718;2022-10-03T16:38:38;102355.94;;;19.31;60.89
48053;BME280;33824;51.600;5.718;2022-10-03T16:41:13;102352.31;;;19.17;60.82
48053;BME280;33824;51.600;5.718;2022-10-03T16:43:40;102349.22;;;19.20;61.05
48053;BME280;33824;51.600;5.718;2022-10-03T16:46:17;102355.97;;;19.09;61.06
48053;BME280;33824;51.600;5.718;2022-10-03T16:48:43;102349.00;;;19.00;61.23
48053;BME280;33824;51.600;5.718;2022-10-03T16:51:43;102340.81;;;18.73;61.58
48053;BME280;33824;51.600;5.718;2022-10-03T16:54:12;102339.78;;;18.74;61.72
48053;BME280;33824;51.600;5.718;2022-10-03T16:56:43;102345.69;;;18.62;62.38
48053;BME280;33824;51.600;5.718;2022-10-03T16:59:15;102340.69;;;18.45;62.83
48053;BME280;33824;51.600;5.718;2022-10-03T17:01:56;102341.75;;;18.29;63.53
48053;BME280;33824;51.600;5.718;2022-10-03T17:04:36;102345.28;;;18.15;63.39
48053;BME280;33824;51.600;5.718;2022-10-03T17:07:17;102354.88;;;18.03;63.36
48053;BME280;33824;51.600;5.718;2022-10-03T17:09:48;102354.31;;;17.93;64.01
48053;BME280;33824;51.600;5.718;2022-10-03T17:12:27;102358.38;;;17.74;63.96
48053;BME280;33824;51.600;5.718;2022-10-03T17:15:02;102352.84;;;17.53;64.17
48053;BME280;33824;51.600;5.718;2022-10-03T17:17:44;102353.16;;;17.35;64.55
48053;BME280;33824;51.600;5.718;2022-10-03T17:20:23;102348.50;;;17.29;64.73
48053;BME280;33824;51.600;5.718;2022-10-03T17:22:59;102345.03;;;17.20;65.09
48053;BME280;33824;51.600;5.718;2022-10-03T17:25:34;102338.69;;;17.13;65.23
48053;BME280;33824;51.600;5.718;2022-10-03T17:28:05;102339.72;;;17.12;65.57
48053;BME280;33824;51.600;5.718;2022-10-03T17:30:44;102338.13;;;17.03;65.68
48053;BME280;33824;51.600;5.718;2022-10-03T17:36:01;102343.31;;;16.82;66.60
48053;BME280;33824;51.600;5.718;2022-10-03T17:38:53;102335.63;;;16.71;67.08
48053;BME280;33824;51.600;5.718;2022-10-03T17:44:32;102347.28;;;16.63;67.55
48053;BME280;33824;51.600;5.718;2022-10-03T17:47:15;102343.59;;;16.64;67.83
48053;BME280;33824;51.600;5.718;2022-10-03T17:49:59;102335.50;;;16.64;67.65
48053;BME280;33824;51.600;5.718;2022-10-03T17:52:28;102328.91;;;16.67;67.86
48053;BME280;33824;51.600;5.718;2022-10-03T17:55:02;102338.72;;;16.60;68.06
48053;BME280;33824;51.600;5.718;2022-10-03T17:57:35;102332.97;;;16.63;68.32
48053;BME280;33824;51.600;5.718;2022-10-03T18:02:43;102332.47;;;16.67;67.99
48053;BME280;33824;51.600;5.718;2022-10-03T18:05:18;102325.09;;;16.61;68.01
48053;BME280;33824;51.600;5.718;2022-10-03T18:07:44;102325.91;;;16.70;67.98
48053;BME280;33824;51.600;5.718;2022-10-03T18:10:31;102320.56;;;16.54;68.19
48053;BME280;33824;51.600;5.718;2022-10-03T18:13:00;102326.78;;;16.62;68.59
48053;BME280;33824;51.600;5.718;2022-10-03T18:18:24;102330.53;;;16.45;68.91
48053;BME280;33824;51.600;5.718;2022-10-03T18:23:36;102322.63;;;16.13;69.36
48053;BME280;33824;51.600;5.718;2022-10-03T18:26:12;102330.66;;;16.21;69.35
48053;BME280;33824;51.600;5.718;2022-10-03T18:28:54;102331.69;;;16.20;69.25
48053;BME280;33824;51.600;5.718;2022-10-03T18:31:25;102330.97;;;16.26;69.53
48053;BME280;33824;51.600;5.718;2022-10-03T18:33:58;102331.84;;;16.18;69.31
48053;BME280;33824;51.600;5.718;2022-10-03T18:36:28;102335.22;;;16.20;69.44
48053;BME280;33824;51.600;5.718;2022-10-03T18:38:59;102335.91;;;16.14;69.71
48053;BME280;33824;51.600;5.718;2022-10-03T18:41:30;102335.91;;;16.14;69.83
48053;BME280;33824;51.600;5.718;2022-10-03T18:43:58;102340.94;;;16.09;70.01
48053;BME280;33824;51.600;5.718;2022-10-03T18:46:38;102332.13;;;15.93;70.33
48053;BME280;33824;51.600;5.718;2022-10-03T18:49:14;102326.91;;;15.83;70.26
48053;BME280;33824;51.600;5.718;2022-10-03T18:51:44;102332.13;;;15.84;70.56
48053;BME280;33824;51.600;5.718;2022-10-03T18:54:27;102337.72;;;15.75;71.23
48053;BME280;33824;51.600;5.718;2022-10-03T18:57:06;102327.97;;;15.74;71.33
48053;BME280;33824;51.600;5.718;2022-10-03T18:59:44;102316.00;;;15.76;71.26
48053;BME280;33824;51.600;5.718;2022-10-03T19:02:17;102323.44;;;15.74;71.66
48053;BME280;33824;51.600;5.718;2022-10-03T19:04:51;102330.81;;;15.72;71.64
48053;BME280;33824;51.600;5.718;2022-10-03T19:07:22;102329.97;;;15.72;71.85
48053;BME280;33824;51.600;5.718;2022-10-03T19:10:49;102329.34;;;15.54;72.07
48053;BME280;33824;51.600;5.718;2022-10-03T19:13:27;102322.94;;;15.47;72.36
48053;BME280;33824;51.600;5.718;2022-10-03T19:16:00;102327.00;;;15.51;72.36
48053;BME280;33824;51.600;5.718;2022-10-03T19:18:39;102321.94;;;15.40;72.64
48053;BME280;33824;51.600;5.718;2022-10-03T19:21:17;102315.91;;;15.21;73.03
48053;BME280;33824;51.600;5.718;2022-10-03T19:23:55;102309.19;;;15.17;73.02
48053;BME280;33824;51.600;5.718;2022-10-03T19:26:28;102312.72;;;15.10;72.95
48053;BME280;33824;51.600;5.718;2022-10-03T19:29:02;102300.97;;;15.03;73.23
48053;BME280;33824;51.600;5.718;2022-10-03T19:31:38;102303.66;;;14.95;74.01
48053;BME280;33824;51.600;5.718;2022-10-03T19:36:49;102301.28;;;14.92;73.81
48053;BME280;33824;51.600;5.718;2022-10-03T19:39:16;102297.78;;;14.91;74.28
48053;BME280;33824;51.600;5.718;2022-10-03T19:42:10;102306.31;;;14.78;74.21
48053;BME280;33824;51.600;5.718;2022-10-03T19:44:39;102302.13;;;14.84;74.24
48053;BME280;33824;51.600;5.718;2022-10-03T19:47:20;102291.03;;;14.71;74.49
48053;BME280;33824;51.600;5.718;2022-10-03T19:49:51;102301.28;;;14.75;74.92
48053;BME280;33824;51.600;5.718;2022-10-03T19:52:23;102299.47;;;14.76;74.93
48053;BME280;33824;51.600;5.718;2022-10-03T19:54:58;102299.94;;;14.71;74.99
48053;BME280;33824;51.600;5.718;2022-10-03T19:57:37;102290.22;;;14.78;74.95
48053;BME280;33824;51.600;5.718;2022-10-03T20:00:20;102297.06;;;14.73;75.12
48053;BME280;33824;51.600;5.718;2022-10-03T20:02:55;102295.94;;;14.75;75.52
48053;BME280;33824;51.600;5.718;2022-10-03T20:05:27;102295.94;;;14.83;75.73
48053;BME280;33824;51.600;5.718;2022-10-03T20:07:59;102299.97;;;14.79;75.66
48053;BME280;33824;51.600;5.718;2022-10-03T20:10:40;102298.94;;;14.80;75.93
48053;BME280;33824;51.600;5.718;2022-10-03T20:13:10;102296.94;;;14.91;75.60
48053;BME280;33824;51.600;5.718;2022-10-03T20:15:42;102302.47;;;14.89;75.81
48053;BME280;33824;51.600;5.718;2022-10-03T20:18:10;102302.94;;;14.60;76.51
48053;BME280;33824;51.600;5.718;2022-10-03T20:20:38;102297.59;;;14.84;76.25
48053;BME280;33824;51.600;5.718;2022-10-03T20:23:06;102305.16;;;14.89;76.00
48053;BME280;33824;51.600;5.718;2022-10-03T20:25:51;102312.34;;;14.80;76.28
48053;BME280;33824;51.600;5.718;2022-10-03T20:28:31;102306.97;;;14.80;76.44
48053;BME280;33824;51.600;5.718;2022-10-03T20:31:01;102304.81;;;14.84;76.62
48053;BME280;33824;51.600;5.718;2022-10-03T20:33:30;102300.97;;;14.78;76.29
48053;BME280;33824;51.600;5.718;2022-10-03T20:36:05;102303.47;;;14.72;76.60
48053;BME280;33824;51.600;5.718;2022-10-03T20:41:49;102300.44;;;14.67;76.58
48053;BME280;33824;51.600;5.718;2022-10-03T20:47:25;102306.13;;;14.80;76.87
48053;BME280;33824;51.600;5.718;2022-10-03T20:50:02;102307.31;;;14.77;76.73
48053;BME280;33824;51.600;5.718;2022-10-03T20:52:31;102304.66;;;14.85;76.75
48053;BME280;33824;51.600;5.718;2022-10-03T20:54:59;102303.47;;;14.88;76.67
48053;BME280;33824;51.600;5.718;2022-10-03T20:57:31;102295.75;;;14.93;76.51
48053;BME280;33824;51.600;5.718;2022-10-03T21:00:16;102294.41;;;14.81;76.54
48053;BME280;33824;51.600;5.718;2022-10-03T21:02:47;102294.41;;;14.89;76.29
48053;BME280;33824;51.600;5.718;2022-10-03T21:05:28;102299.28;;;14.85;76.83
48053;BME280;33824;51.600;5.718;2022-10-03T21:08:36;102294.25;;;14.91;76.43
48053;BME280;33824;51.600;5.718;2022-10-03T21:10:56;102286.69;;;14.94;76.54
48053;BME280;33824;51.600;5.718;2022-10-03T21:13:35;102292.91;;;14.86;76.33
48053;BME280;33824;51.600;5.718;2022-10-03T21:16:16;102295.41;;;14.88;76.27
48053;BME280;33824;51.600;5.718;2022-10-03T21:18:44;102291.72;;;14.97;76.52
48053;BME280;33824;51.600;5.718;2022-10-03T21:21:35;102297.28;;;14.87;76.57
48053;BME280;33824;51.600;5.718;2022-10-03T21:24:12;102293.41;;;14.98;76.56
48053;BME280;33824;51.600;5.718;2022-10-03T21:26:47;102298.28;;;14.95;76.25
48053;BME280;33824;51.600;5.718;2022-10-03T21:32:23;102292.56;;;14.73;76.75
48053;BME280;33824;51.600;5.718;2022-10-03T21:45:57;102274.75;;;14.72;76.54
48053;BME280;33824;51.600;5.718;2022-10-03T21:51:28;102275.91;;;14.62;76.76
48053;BME280;33824;51.600;5.718;2022-10-03T21:54:05;102273.94;;;14.64;76.86
48053;BME280;33824;51.600;5.718;2022-10-03T22:04:41;102252.91;;;14.43;77.21
48053;BME280;33824;51.600;5.718;2022-10-03T22:07:17;102255.44;;;14.45;77.07
48053;BME280;33824;51.600;5.718;2022-10-03T22:09:54;102253.41;;;14.47;76.99
48053;BME280;33824;51.600;5.718;2022-10-03T22:12:20;102252.09;;;14.51;77.27
48053;BME280;33824;51.600;5.718;2022-10-03T22:15:02;102249.59;;;14.49;77.19
48053;BME280;33824;51.600;5.718;2022-10-03T22:17:38;102243.16;;;14.34;76.94
48053;BME280;33824;51.600;5.718;2022-10-03T22:20:16;102242.66;;;14.38;77.39